Belmont, MA (02478)

02:16 PM EDT del 01 Ottobre 2014 (GMT -0400)
Cushing Square | Change Station
CLOSE
Current Station
Stazione meteo personale
Location: Belmont, MA
Altitudine: 135 ft
Stazioni meteo nelle vicinanze

Alt. 135 ft 42.39 °N, 71.18 °W | Updated 29 seconds ago

Pioggia
Pioggia
56.8 °F
Sembra 56.8 °F
N
1.6
Vento Variabile Vento da OSO
Gusts 4.5 mph

Oggi
Massima -- | Minima -- °F
--% Possibilità di precip.
Ieri
Massima -- | Minima -- °F
Precip. -- in
6:41 AM 6:26 PM
Luna crescente, 49% visible
Pressione 30.11 in
Visibilità 6.0 miglia
Nuvole Coperto 600 ft
Punto di rugiada 55 °F
Umidità 95%
Piovosità 0.00 in
Spessore del manto nevoso Non disponibile.
Raggi UV 2 fuori da 12
Polline .40 fuori da 12
Ozono Buono
PM2.5 Buono
Flu Activity Non disponibile.
METAR KBED 011756Z 03010KT 6SM -RA BR OVC006 13/13 A3007 RMK AO2 SLP194 P0010 60019 T01330128 10139 20133 58003

More Conditions Fewer Conditions

Pressione 30.11 in
Visibilità 6.0 miglia
Nuvole Coperto 600 ft
Punto di rugiada 55 °F
Umidità 95%
Piovosità 0.00 in
Spessore del manto nevoso Non disponibile.
Raggi UV 2 fuori da 12
Polline .40 fuori da 12
Ozono Buono
PM2.5 Buono
Flu Activity Non disponibile.
METAR KBED 011756Z 03010KT 6SM -RA BR OVC006 13/13 A3007 RMK AO2 SLP194 P0010 60019 T01330128 10139 20133 58003

More Conditions Fewer Conditions

10-Day Weather Forecast

Almanac

Astronomia

Oct. 01, 2014 Alba Tramonto
Ora attuale 06:41 EDT 18:26 EDT
Crepuscolo civile 06:13 EDT 18:54 EDT
Crepuscolo nautico 05:41 EDT 19:26 EDT
Crepuscolo astronomico 05:08 EDT 19:59 EDT
Luna 13:45 EDT 23:50 EDT
Estensione della luce visibile 12h 40m
Lunghezza del giorno
11h 44m
Tomorrow will be 2m 50s shorter.
Luna crescente, 49% of the Moon is Illuminated
Oggi
Luna crescente
Ott 1
Primo quarto
Ott 8
Luna piena
Ott 15
Ultimo quarto
Ott 23
Nuovo

Gli estremi di oggi

State Highs State Lows

Community

WunderPhotos

Upload Photos

1,758,008 foto caricate!

WunderBlogs® & News

By Dr. Jeff Masters
Director of Meteorology, Weather Underground
By Kari Strenfel
Meteorologist, Weather Underground
By Christopher C. Burt
Weather Historian, Weather Underground
October 1, 2014
October 1, 2014
October 1, 2014

Nearby

Qualità dell'aria

  Qualità dell'aria Indice AQ Inquinante
Ieri Buono
PM2.5
Ieri Buono
OZONE
Attuale Buono
PM2.5
Attuale Buono
OZONE
Mercoledì Buono
PM2.5
Mercoledì Buono
OZONE

Profondità neve

Stazione Profondità Altitudine
Non sono state evidenziate nuove nevicate

Attività sismica

Città  Distanza Mag. Data & Ora
Non sono state riportate attività sismiche nelle vicinanze.
Minimo Magnitudo Mostrato è 2.5.

Temperature delle acque costiere

Località Temperatura
Boston, MA 62.1 °F
Providence, RI 66.0 °F
Fall River, MA 66.9 °F
Conimicut Light, RI 66.0 °F

Stazioni meteo nelle vicinanze